Terminal Aerodrome Forecast
Issued by NWS St Louis, MO

Home | Current Version | Previous Version | Text Only | Print | Product List | Glossary On
Versions: 1 2 3 4 5 6 7 8 9 10 11 12 13 14 15 16 17 18 19 20 21 22 23 24 25 26 27
832
FTUS43 KLSX 082300 AAB
TAFSTL
TAF AMD
KSTL 082300Z 0823/0924 30018G28KT 4SM -SHSN OVC035
      TEMPO 0823/0824 2SM -SN BKN025
     FM090000 31018G28KT P6SM -SHSN OVC025
     FM090600 31015G25KT P6SM OVC025
     FM092100 30015G25KT P6SM BKN035=

USA.gov is the U.S. government's official web portal to all federal, state and local government web resources and services.